首页
METAR-TAF:

METAR-TAF

机场 :

.Triangle North Executive Airport

Louisburg, 北卡罗来纳州, 美国

纬度: 36-01-24N, 经度: 078-19-49W, 海拔: 113米

当前天气观测

该预报发布于23分钟前的19:55 UTC
风速10节,风向,有时为15节阵风
温度 10°C
湿度 62%
气压 1016 hPa
能見度: 16.1公里
散云层高于2500英尺
散云层高于3600英尺
阴天层高于4800英尺

METAR: KLHZ 171955Z AUTO 36010G15KT 10SM SCT025 SCT036 OVC048 10/03 A3001 RMK AO2

时间: 15:18 (20:18 UTC)


TAF: 丢失

超过4000个机场的气象观测和天气预报(METAR&TAF报告)。

可查询的气象台以黄色和红色小点在地图上表示。

将鼠标移到小点上方,可查看气象台名称。

然后点击查看天气观测和预报。

如需切换地图:点击带黑十字的绿色按钮放大地图;点击带横线的绿色按钮缩小地图;或者点击绿色箭头查看邻近地区的地图。


METAR-TAF: